sensor_id;sensor_type;location;lat;lon;timestamp;temperature;humidity
76857;DHT22;69705;44.686;37.628;2023-12-20T00:01:02;11.27;94.17
76857;DHT22;69705;44.686;37.628;2023-12-20T00:03:29;11.15;94.49
76857;DHT22;69705;44.686;37.628;2023-12-20T00:05:56;11.08;95.24
76857;DHT22;69705;44.686;37.628;2023-12-20T00:08:23;10.98;95.72
76857;DHT22;69705;44.686;37.628;2023-12-20T00:10:50;10.93;96.25
76857;DHT22;69705;44.686;37.628;2023-12-20T00:13:17;10.89;96.40
76857;DHT22;69705;44.686;37.628;2023-12-20T00:15:44;10.84;96.04
76857;DHT22;69705;44.686;37.628;2023-12-20T00:18:11;10.77;96.13
76857;DHT22;69705;44.686;37.628;2023-12-20T00:20:38;10.77;96.30
76857;DHT22;69705;44.686;37.628;2023-12-20T00:23:05;10.72;95.66
76857;DHT22;69705;44.686;37.628;2023-12-20T00:25:32;10.67;94.52
76857;DHT22;69705;44.686;37.628;2023-12-20T00:27:59;10.62;94.57
76857;DHT22;69705;44.686;37.628;2023-12-20T00:30:26;10.63;95.81
76857;DHT22;69705;44.686;37.628;2023-12-20T00:32:53;10.66;96.17
76857;DHT22;69705;44.686;37.628;2023-12-20T00:35:20;10.69;95.84
76857;DHT22;69705;44.686;37.628;2023-12-20T00:37:47;10.74;95.15
76857;DHT22;69705;44.686;37.628;2023-12-20T00:40:14;10.80;94.88
76857;DHT22;69705;44.686;37.628;2023-12-20T00:42:41;10.84;95.10
76857;DHT22;69705;44.686;37.628;2023-12-20T00:45:08;10.88;95.30
76857;DHT22;69705;44.686;37.628;2023-12-20T00:47:35;10.90;94.76
76857;DHT22;69705;44.686;37.628;2023-12-20T00:50:02;10.90;92.54
76857;DHT22;69705;44.686;37.628;2023-12-20T00:52:30;10.87;93.17
76857;DHT22;69705;44.686;37.628;2023-12-20T00:54:56;10.81;94.43
76857;DHT22;69705;44.686;37.628;2023-12-20T00:57:23;10.79;95.62
76857;DHT22;69705;44.686;37.628;2023-12-20T00:59:50;10.75;95.44
76857;DHT22;69705;44.686;37.628;2023-12-20T01:02:17;10.78;95.04
76857;DHT22;69705;44.686;37.628;2023-12-20T01:04:44;10.78;94.66
76857;DHT22;69705;44.686;37.628;2023-12-20T01:07:11;10.79;94.70
76857;DHT22;69705;44.686;37.628;2023-12-20T01:09:38;10.82;94.30
76857;DHT22;69705;44.686;37.628;2023-12-20T01:12:05;10.83;93.93
76857;DHT22;69705;44.686;37.628;2023-12-20T01:14:32;10.90;93.67
76857;DHT22;69705;44.686;37.628;2023-12-20T01:16:59;10.94;93.68
76857;DHT22;69705;44.686;37.628;2023-12-20T01:19:26;10.97;92.61
76857;DHT22;69705;44.686;37.628;2023-12-20T01:21:55;11.01;92.41
76857;DHT22;69705;44.686;37.628;2023-12-20T01:24:22;11.03;91.47
76857;DHT22;69705;44.686;37.628;2023-12-20T01:26:49;11.05;91.17
76857;DHT22;69705;44.686;37.628;2023-12-20T01:29:16;11.07;90.98
76857;DHT22;69705;44.686;37.628;2023-12-20T01:31:43;11.02;90.10
76857;DHT22;69705;44.686;37.628;2023-12-20T01:34:10;10.98;91.46
76857;DHT22;69705;44.686;37.628;2023-12-20T01:36:37;10.97;92.54
76857;DHT22;69705;44.686;37.628;2023-12-20T01:39:04;11.01;90.31
76857;DHT22;69705;44.686;37.628;2023-12-20T01:41:31;11.08;89.44
76857;DHT22;69705;44.686;37.628;2023-12-20T01:43:58;11.11;90.54
76857;DHT22;69705;44.686;37.628;2023-12-20T01:46:25;11.14;91.04
76857;DHT22;69705;44.686;37.628;2023-12-20T01:48:53;11.17;90.94
76857;DHT22;69705;44.686;37.628;2023-12-20T01:51:20;11.20;88.07
76857;DHT22;69705;44.686;37.628;2023-12-20T01:53:48;11.27;89.27
76857;DHT22;69705;44.686;37.628;2023-12-20T01:56:16;11.29;89.13
76857;DHT22;69705;44.686;37.628;2023-12-20T01:58:44;11.32;89.58
76857;DHT22;69705;44.686;37.628;2023-12-20T02:01:12;11.36;88.64
76857;DHT22;69705;44.686;37.628;2023-12-20T02:03:42;11.38;88.47
76857;DHT22;69705;44.686;37.628;2023-12-20T02:06:09;11.41;90.36
76857;DHT22;69705;44.686;37.628;2023-12-20T02:08:37;11.42;90.36
76857;DHT22;69705;44.686;37.628;2023-12-20T02:11:04;11.44;90.75
76857;DHT22;69705;44.686;37.628;2023-12-20T02:13:31;11.46;91.15
76857;DHT22;69705;44.686;37.628;2023-12-20T02:15:59;11.46;90.44
76857;DHT22;69705;44.686;37.628;2023-12-20T02:18:26;11.46;89.49
76857;DHT22;69705;44.686;37.628;2023-12-20T02:20:53;11.45;90.50
76857;DHT22;69705;44.686;37.628;2023-12-20T02:23:21;11.41;89.86
76857;DHT22;69705;44.686;37.628;2023-12-20T02:25:48;11.39;88.15
76857;DHT22;69705;44.686;37.628;2023-12-20T02:28:16;11.42;89.70
76857;DHT22;69705;44.686;37.628;2023-12-20T02:30:43;11.40;89.40
76857;DHT22;69705;44.686;37.628;2023-12-20T02:33:12;11.43;89.18
76857;DHT22;69705;44.686;37.628;2023-12-20T02:35:39;11.43;88.57
76857;DHT22;69705;44.686;37.628;2023-12-20T02:38:06;11.44;90.36
76857;DHT22;69705;44.686;37.628;2023-12-20T02:40:33;11.45;90.92
76857;DHT22;69705;44.686;37.628;2023-12-20T02:43:00;11.46;90.96
76857;DHT22;69705;44.686;37.628;2023-12-20T02:45:27;11.49;90.92
76857;DHT22;69705;44.686;37.628;2023-12-20T02:47:55;11.52;89.79
76857;DHT22;69705;44.686;37.628;2023-12-20T02:50:22;11.54;88.52
76857;DHT22;69705;44.686;37.628;2023-12-20T02:52:49;11.55;89.37
76857;DHT22;69705;44.686;37.628;2023-12-20T02:55:16;11.56;88.39
76857;DHT22;69705;44.686;37.628;2023-12-20T02:57:43;11.57;88.77
76857;DHT22;69705;44.686;37.628;2023-12-20T03:00:10;11.59;88.98
76857;DHT22;69705;44.686;37.628;2023-12-20T03:02:37;11.58;88.18
76857;DHT22;69705;44.686;37.628;2023-12-20T03:05:04;11.58;87.96
76857;DHT22;69705;44.686;37.628;2023-12-20T03:07:32;11.59;88.67
76857;DHT22;69705;44.686;37.628;2023-12-20T03:09:59;11.59;87.54
76857;DHT22;69705;44.686;37.628;2023-12-20T03:12:26;11.60;87.07
76857;DHT22;69705;44.686;37.628;2023-12-20T03:14:52;11.60;88.09
76857;DHT22;69705;44.686;37.628;2023-12-20T03:17:19;11.61;87.52
76857;DHT22;69705;44.686;37.628;2023-12-20T03:19:47;11.61;86.92
76857;DHT22;69705;44.686;37.628;2023-12-20T03:22:14;11.63;86.78
76857;DHT22;69705;44.686;37.628;2023-12-20T03:24:41;11.64;86.88
76857;DHT22;69705;44.686;37.628;2023-12-20T03:27:08;11.66;87.28
76857;DHT22;69705;44.686;37.628;2023-12-20T03:29:35;11.64;87.21
76857;DHT22;69705;44.686;37.628;2023-12-20T03:32:02;11.68;87.48
76857;DHT22;69705;44.686;37.628;2023-12-20T03:34:28;11.70;87.90
76857;DHT22;69705;44.686;37.628;2023-12-20T03:36:55;11.72;86.70
76857;DHT22;69705;44.686;37.628;2023-12-20T03:39:22;11.71;86.50
76857;DHT22;69705;44.686;37.628;2023-12-20T03:41:49;11.70;86.88
76857;DHT22;69705;44.686;37.628;2023-12-20T03:44:15;11.71;87.67
76857;DHT22;69705;44.686;37.628;2023-12-20T03:46:42;11.69;85.81
76857;DHT22;69705;44.686;37.628;2023-12-20T03:49:09;11.68;85.78
76857;DHT22;69705;44.686;37.628;2023-12-20T03:51:36;11.69;87.27
76857;DHT22;69705;44.686;37.628;2023-12-20T03:54:03;11.69;87.15
76857;DHT22;69705;44.686;37.628;2023-12-20T03:56:30;11.69;86.74
76857;DHT22;69705;44.686;37.628;2023-12-20T03:58:56;11.70;86.53
76857;DHT22;69705;44.686;37.628;2023-12-20T04:01:23;11.72;87.91
76857;DHT22;69705;44.686;37.628;2023-12-20T04:03:50;11.70;87.89
76857;DHT22;69705;44.686;37.628;2023-12-20T04:06:17;11.70;87.61
76857;DHT22;69705;44.686;37.628;2023-12-20T04:08:44;11.72;87.72
76857;DHT22;69705;44.686;37.628;2023-12-20T04:11:11;11.70;87.01
76857;DHT22;69705;44.686;37.628;2023-12-20T04:13:38;11.70;87.03
76857;DHT22;69705;44.686;37.628;2023-12-20T04:16:05;11.70;86.19
76857;DHT22;69705;44.686;37.628;2023-12-20T04:18:32;11.69;86.42
76857;DHT22;69705;44.686;37.628;2023-12-20T04:20:59;11.68;87.21
76857;DHT22;69705;44.686;37.628;2023-12-20T04:23:25;11.64;85.95
76857;DHT22;69705;44.686;37.628;2023-12-20T04:25:52;11.62;85.85
76857;DHT22;69705;44.686;37.628;2023-12-20T04:28:19;11.61;87.18
76857;DHT22;69705;44.686;37.628;2023-12-20T04:30:46;11.57;86.26
76857;DHT22;69705;44.686;37.628;2023-12-20T04:33:13;11.58;87.46
76857;DHT22;69705;44.686;37.628;2023-12-20T04:35:40;11.58;87.03
76857;DHT22;69705;44.686;37.628;2023-12-20T04:38:09;11.58;87.45
76857;DHT22;69705;44.686;37.628;2023-12-20T04:40:35;11.57;87.33
76857;DHT22;69705;44.686;37.628;2023-12-20T04:43:02;11.59;87.67
76857;DHT22;69705;44.686;37.628;2023-12-20T04:45:29;11.58;87.25
76857;DHT22;69705;44.686;37.628;2023-12-20T04:47:56;11.56;87.04
76857;DHT22;69705;44.686;37.628;2023-12-20T04:50:23;11.56;87.22
76857;DHT22;69705;44.686;37.628;2023-12-20T04:52:50;11.53;86.07
76857;DHT22;69705;44.686;37.628;2023-12-20T04:55:17;11.51;86.73
76857;DHT22;69705;44.686;37.628;2023-12-20T04:57:43;11.48;86.16
76857;DHT22;69705;44.686;37.628;2023-12-20T05:00:11;11.47;86.74
76857;DHT22;69705;44.686;37.628;2023-12-20T05:02:38;11.45;86.88
76857;DHT22;69705;44.686;37.628;2023-12-20T05:05:05;11.44;86.39
76857;DHT22;69705;44.686;37.628;2023-12-20T05:07:32;11.42;86.18
76857;DHT22;69705;44.686;37.628;2023-12-20T05:09:59;11.41;86.96
76857;DHT22;69705;44.686;37.628;2023-12-20T05:12:25;11.40;87.49
76857;DHT22;69705;44.686;37.628;2023-12-20T05:14:52;11.41;87.25
76857;DHT22;69705;44.686;37.628;2023-12-20T05:17:19;11.40;86.96
76857;DHT22;69705;44.686;37.628;2023-12-20T05:19:46;11.42;87.42
76857;DHT22;69705;44.686;37.628;2023-12-20T05:22:13;11.41;86.80
76857;DHT22;69705;44.686;37.628;2023-12-20T05:24:40;11.40;86.44
76857;DHT22;69705;44.686;37.628;2023-12-20T05:27:07;11.41;87.29
76857;DHT22;69705;44.686;37.628;2023-12-20T05:29:33;11.43;87.19
76857;DHT22;69705;44.686;37.628;2023-12-20T05:32:00;11.46;86.44
76857;DHT22;69705;44.686;37.628;2023-12-20T05:34:27;11.49;86.51
76857;DHT22;69705;44.686;37.628;2023-12-20T05:36:54;11.53;85.99
76857;DHT22;69705;44.686;37.628;2023-12-20T05:39:20;11.56;85.44
76857;DHT22;69705;44.686;37.628;2023-12-20T05:41:47;11.56;85.40
76857;DHT22;69705;44.686;37.628;2023-12-20T05:44:14;11.58;85.03
76857;DHT22;69705;44.686;37.628;2023-12-20T05:46:41;11.60;85.88
76857;DHT22;69705;44.686;37.628;2023-12-20T05:49:07;11.68;85.58
76857;DHT22;69705;44.686;37.628;2023-12-20T05:51:34;11.73;85.69
76857;DHT22;69705;44.686;37.628;2023-12-20T05:54:01;11.74;84.35
76857;DHT22;69705;44.686;37.628;2023-12-20T05:56:28;11.79;84.27
76857;DHT22;69705;44.686;37.628;2023-12-20T05:58:54;11.82;83.32
76857;DHT22;69705;44.686;37.628;2023-12-20T06:01:21;11.85;82.77
76857;DHT22;69705;44.686;37.628;2023-12-20T06:03:48;11.84;83.38
76857;DHT22;69705;44.686;37.628;2023-12-20T06:06:15;11.84;82.87
76857;DHT22;69705;44.686;37.628;2023-12-20T06:08:41;11.87;82.04
76857;DHT22;69705;44.686;37.628;2023-12-20T06:11:09;11.90;81.10
76857;DHT22;69705;44.686;37.628;2023-12-20T06:13:36;11.90;81.17
76857;DHT22;69705;44.686;37.628;2023-12-20T06:16:05;11.96;81.21
76857;DHT22;69705;44.686;37.628;2023-12-20T06:18:33;11.96;79.89
76857;DHT22;69705;44.686;37.628;2023-12-20T06:21:00;11.98;80.36
76857;DHT22;69705;44.686;37.628;2023-12-20T06:23:27;12.05;81.37
76857;DHT22;69705;44.686;37.628;2023-12-20T06:25:54;12.08;80.01
76857;DHT22;69705;44.686;37.628;2023-12-20T06:28:20;12.13;79.40
76857;DHT22;69705;44.686;37.628;2023-12-20T06:30:47;12.13;80.09
76857;DHT22;69705;44.686;37.628;2023-12-20T06:33:16;12.17;80.52
76857;DHT22;69705;44.686;37.628;2023-12-20T06:35:42;12.14;80.86
76857;DHT22;69705;44.686;37.628;2023-12-20T06:38:09;12.22;81.22
76857;DHT22;69705;44.686;37.628;2023-12-20T06:40:36;12.27;81.09
76857;DHT22;69705;44.686;37.628;2023-12-20T06:43:03;12.29;80.43
76857;DHT22;69705;44.686;37.628;2023-12-20T06:45:29;12.31;81.23
76857;DHT22;69705;44.686;37.628;2023-12-20T06:47:57;12.35;80.02
76857;DHT22;69705;44.686;37.628;2023-12-20T06:50:24;12.30;80.11
76857;DHT22;69705;44.686;37.628;2023-12-20T06:52:51;12.25;80.61
76857;DHT22;69705;44.686;37.628;2023-12-20T06:55:19;12.32;80.73
76857;DHT22;69705;44.686;37.628;2023-12-20T06:57:45;12.33;80.94
76857;DHT22;69705;44.686;37.628;2023-12-20T07:00:12;12.36;82.01
76857;DHT22;69705;44.686;37.628;2023-12-20T07:02:39;12.45;82.04
76857;DHT22;69705;44.686;37.628;2023-12-20T07:05:06;12.44;81.30
76857;DHT22;69705;44.686;37.628;2023-12-20T07:07:33;12.46;81.68
76857;DHT22;69705;44.686;37.628;2023-12-20T07:10:00;12.60;82.04
76857;DHT22;69705;44.686;37.628;2023-12-20T07:12:27;12.64;80.11
76857;DHT22;69705;44.686;37.628;2023-12-20T07:14:54;12.60;78.79
76857;DHT22;69705;44.686;37.628;2023-12-20T07:17:22;12.53;79.38
76857;DHT22;69705;44.686;37.628;2023-12-20T07:19:49;12.48;80.13
76857;DHT22;69705;44.686;37.628;2023-12-20T07:22:15;12.51;80.53
76857;DHT22;69705;44.686;37.628;2023-12-20T07:24:42;12.51;80.62
76857;DHT22;69705;44.686;37.628;2023-12-20T07:27:09;12.50;80.97
76857;DHT22;69705;44.686;37.628;2023-12-20T07:29:35;12.50;80.65
76857;DHT22;69705;44.686;37.628;2023-12-20T07:32:03;12.48;80.24
76857;DHT22;69705;44.686;37.628;2023-12-20T07:34:31;12.49;80.48
76857;DHT22;69705;44.686;37.628;2023-12-20T07:36:58;12.59;80.78
76857;DHT22;69705;44.686;37.628;2023-12-20T07:39:24;12.76;80.37
76857;DHT22;69705;44.686;37.628;2023-12-20T07:41:51;12.95;80.24
76857;DHT22;69705;44.686;37.628;2023-12-20T07:44:18;13.05;80.34
76857;DHT22;69705;44.686;37.628;2023-12-20T07:46:44;13.15;79.84
76857;DHT22;69705;44.686;37.628;2023-12-20T07:49:11;13.06;79.95
76857;DHT22;69705;44.686;37.628;2023-12-20T07:51:39;13.03;78.44
76857;DHT22;69705;44.686;37.628;2023-12-20T07:54:06;13.01;78.42
76857;DHT22;69705;44.686;37.628;2023-12-20T07:56:34;12.96;79.03
76857;DHT22;69705;44.686;37.628;2023-12-20T07:59:01;12.90;79.89
76857;DHT22;69705;44.686;37.628;2023-12-20T08:01:27;12.89;80.19
76857;DHT22;69705;44.686;37.628;2023-12-20T08:03:54;12.82;79.98
76857;DHT22;69705;44.686;37.628;2023-12-20T08:06:21;12.77;80.08
76857;DHT22;69705;44.686;37.628;2023-12-20T08:08:48;12.75;80.22
76857;DHT22;69705;44.686;37.628;2023-12-20T08:11:14;12.78;80.32
76857;DHT22;69705;44.686;37.628;2023-12-20T08:13:41;12.84;80.05
76857;DHT22;69705;44.686;37.628;2023-12-20T08:16:08;12.87;80.52
76857;DHT22;69705;44.686;37.628;2023-12-20T08:18:35;12.94;79.91
76857;DHT22;69705;44.686;37.628;2023-12-20T08:21:02;13.06;78.63
76857;DHT22;69705;44.686;37.628;2023-12-20T08:23:28;13.11;79.17
76857;DHT22;69705;44.686;37.628;2023-12-20T08:25:55;13.08;78.80
76857;DHT22;69705;44.686;37.628;2023-12-20T08:28:22;12.96;79.02
76857;DHT22;69705;44.686;37.628;2023-12-20T08:30:49;12.99;79.27
76857;DHT22;69705;44.686;37.628;2023-12-20T08:33:20;13.04;80.15
76857;DHT22;69705;44.686;37.628;2023-12-20T08:35:47;13.30;79.29
76857;DHT22;69705;44.686;37.628;2023-12-20T08:38:14;13.43;78.94
76857;DHT22;69705;44.686;37.628;2023-12-20T08:40:41;13.47;78.18
76857;DHT22;69705;44.686;37.628;2023-12-20T08:43:08;13.58;78.21
76857;DHT22;69705;44.686;37.628;2023-12-20T08:45:35;13.78;77.83
76857;DHT22;69705;44.686;37.628;2023-12-20T08:48:02;13.91;75.92
76857;DHT22;69705;44.686;37.628;2023-12-20T08:50:29;13.99;75.70
76857;DHT22;69705;44.686;37.628;2023-12-20T08:52:56;13.93;75.59
76857;DHT22;69705;44.686;37.628;2023-12-20T08:55:23;13.76;75.57
76857;DHT22;69705;44.686;37.628;2023-12-20T08:57:50;13.64;77.07
76857;DHT22;69705;44.686;37.628;2023-12-20T09:00:17;13.83;75.68
76857;DHT22;69705;44.686;37.628;2023-12-20T09:02:47;13.71;76.39
76857;DHT22;69705;44.686;37.628;2023-12-20T09:05:14;13.54;77.70
76857;DHT22;69705;44.686;37.628;2023-12-20T09:07:41;13.47;76.99
76857;DHT22;69705;44.686;37.628;2023-12-20T09:10:08;13.68;77.69
76857;DHT22;69705;44.686;37.628;2023-12-20T09:12:35;13.68;77.09
76857;DHT22;69705;44.686;37.628;2023-12-20T09:15:04;13.51;77.53
76857;DHT22;69705;44.686;37.628;2023-12-20T09:17:32;13.39;78.14
76857;DHT22;69705;44.686;37.628;2023-12-20T09:19:58;13.59;76.09
76857;DHT22;69705;44.686;37.628;2023-12-20T09:22:26;13.73;77.18
76857;DHT22;69705;44.686;37.628;2023-12-20T09:24:53;14.03;76.63
76857;DHT22;69705;44.686;37.628;2023-12-20T09:27:20;14.32;74.89
76857;DHT22;69705;44.686;37.628;2023-12-20T09:29:47;14.20;73.75
76857;DHT22;69705;44.686;37.628;2023-12-20T09:32:15;14.43;73.34
76857;DHT22;69705;44.686;37.628;2023-12-20T09:34:42;14.62;72.03
76857;DHT22;69705;44.686;37.628;2023-12-20T09:37:09;14.23;73.32
76857;DHT22;69705;44.686;37.628;2023-12-20T09:39:35;14.12;75.25
76857;DHT22;69705;44.686;37.628;2023-12-20T09:42:04;14.30;74.80
76857;DHT22;69705;44.686;37.628;2023-12-20T09:44:31;14.38;72.45
76857;DHT22;69705;44.686;37.628;2023-12-20T09:47:03;14.13;73.75
76857;DHT22;69705;44.686;37.628;2023-12-20T09:49:30;13.88;74.25
76857;DHT22;69705;44.686;37.628;2023-12-20T09:51:57;13.81;75.33
76857;DHT22;69705;44.686;37.628;2023-12-20T09:54:24;13.70;75.34
76857;DHT22;69705;44.686;37.628;2023-12-20T09:56:52;13.65;76.16
76857;DHT22;69705;44.686;37.628;2023-12-20T09:59:18;13.56;76.44
76857;DHT22;69705;44.686;37.628;2023-12-20T10:01:45;13.39;76.75
76857;DHT22;69705;44.686;37.628;2023-12-20T10:04:13;13.54;76.02
76857;DHT22;69705;44.686;37.628;2023-12-20T10:06:43;13.76;74.83
76857;DHT22;69705;44.686;37.628;2023-12-20T10:09:11;13.63;76.00
76857;DHT22;69705;44.686;37.628;2023-12-20T10:11:39;13.44;76.02
76857;DHT22;69705;44.686;37.628;2023-12-20T10:14:06;13.62;76.89
76857;DHT22;69705;44.686;37.628;2023-12-20T10:16:33;13.85;76.02
76857;DHT22;69705;44.686;37.628;2023-12-20T10:19:00;13.71;76.01
76857;DHT22;69705;44.686;37.628;2023-12-20T10:21:27;13.68;76.31
76857;DHT22;69705;44.686;37.628;2023-12-20T10:23:55;13.74;76.98
76857;DHT22;69705;44.686;37.628;2023-12-20T10:26:24;13.66;77.18
76857;DHT22;69705;44.686;37.628;2023-12-20T10:28:56;13.55;76.85
76857;DHT22;69705;44.686;37.628;2023-12-20T10:31:29;13.70;76.75
76857;DHT22;69705;44.686;37.628;2023-12-20T10:33:58;13.78;76.20
76857;DHT22;69705;44.686;37.628;2023-12-20T10:36:34;13.65;76.96
76857;DHT22;69705;44.686;37.628;2023-12-20T10:39:03;13.54;75.67
76857;DHT22;69705;44.686;37.628;2023-12-20T10:41:33;13.39;76.96
76857;DHT22;69705;44.686;37.628;2023-12-20T10:44:03;13.58;77.11
76857;DHT22;69705;44.686;37.628;2023-12-20T10:46:31;13.63;76.43
76857;DHT22;69705;44.686;37.628;2023-12-20T10:49:05;13.62;76.54
76857;DHT22;69705;44.686;37.628;2023-12-20T10:51:33;13.45;76.06
76857;DHT22;69705;44.686;37.628;2023-12-20T10:54:01;13.41;76.53
76857;DHT22;69705;44.686;37.628;2023-12-20T10:56:32;13.38;76.98
76857;DHT22;69705;44.686;37.628;2023-12-20T10:59:02;13.46;76.57
76857;DHT22;69705;44.686;37.628;2023-12-20T11:01:32;13.68;76.28
76857;DHT22;69705;44.686;37.628;2023-12-20T11:04:00;13.59;75.68
76857;DHT22;69705;44.686;37.628;2023-12-20T11:06:36;13.48;76.20
76857;DHT22;69705;44.686;37.628;2023-12-20T11:09:20;13.46;77.14
76857;DHT22;69705;44.686;37.628;2023-12-20T11:12:18;13.37;77.83
76857;DHT22;69705;44.686;37.628;2023-12-20T11:14:50;13.32;77.24
76857;DHT22;69705;44.686;37.628;2023-12-20T11:17:18;13.55;75.98
76857;DHT22;69705;44.686;37.628;2023-12-20T11:22:25;13.44;76.09
76857;DHT22;69705;44.686;37.628;2023-12-20T11:24:53;13.37;76.31
76857;DHT22;69705;44.686;37.628;2023-12-20T11:27:20;13.25;76.80
76857;DHT22;69705;44.686;37.628;2023-12-20T11:29:55;13.21;76.66
76857;DHT22;69705;44.686;37.628;2023-12-20T11:35:00;13.38;77.65
76857;DHT22;69705;44.686;37.628;2023-12-20T11:37:31;13.33;76.94
76857;DHT22;69705;44.686;37.628;2023-12-20T11:40:05;13.27;77.24
76857;DHT22;69705;44.686;37.628;2023-12-20T11:42:43;13.20;77.89
76857;DHT22;69705;44.686;37.628;2023-12-20T11:45:11;13.23;78.51
76857;DHT22;69705;44.686;37.628;2023-12-20T11:47:38;13.33;77.80
76857;DHT22;69705;44.686;37.628;2023-12-20T11:50:05;13.30;76.91
76857;DHT22;69705;44.686;37.628;2023-12-20T11:52:35;13.29;76.31
76857;DHT22;69705;44.686;37.628;2023-12-20T11:55:02;13.21;76.29
76857;DHT22;69705;44.686;37.628;2023-12-20T11:57:31;13.16;76.68
76857;DHT22;69705;44.686;37.628;2023-12-20T11:59:57;13.17;77.44
76857;DHT22;69705;44.686;37.628;2023-12-20T12:02:24;13.22;77.17
76857;DHT22;69705;44.686;37.628;2023-12-20T12:04:51;13.25;75.73
76857;DHT22;69705;44.686;37.628;2023-12-20T12:07:18;13.39;76.79
76857;DHT22;69705;44.686;37.628;2023-12-20T12:09:45;13.40;76.74
76857;DHT22;69705;44.686;37.628;2023-12-20T12:12:13;13.38;77.50
76857;DHT22;69705;44.686;37.628;2023-12-20T12:14:40;13.33;77.83
76857;DHT22;69705;44.686;37.628;2023-12-20T12:17:14;13.32;77.66
76857;DHT22;69705;44.686;37.628;2023-12-20T12:19:42;13.32;75.90
76857;DHT22;69705;44.686;37.628;2023-12-20T12:22:11;13.27;77.69
76857;DHT22;69705;44.686;37.628;2023-12-20T12:24:43;13.23;77.11
76857;DHT22;69705;44.686;37.628;2023-12-20T12:27:11;13.15;77.75
76857;DHT22;69705;44.686;37.628;2023-12-20T12:29:38;13.08;78.21
76857;DHT22;69705;44.686;37.628;2023-12-20T12:32:09;13.04;77.99
76857;DHT22;69705;44.686;37.628;2023-12-20T12:34:37;13.08;78.06
76857;DHT22;69705;44.686;37.628;2023-12-20T12:37:04;13.06;79.23
76857;DHT22;69705;44.686;37.628;2023-12-20T12:39:30;13.08;79.49
76857;DHT22;69705;44.686;37.628;2023-12-20T12:41:57;13.05;79.23
76857;DHT22;69705;44.686;37.628;2023-12-20T12:44:24;13.00;79.43
76857;DHT22;69705;44.686;37.628;2023-12-20T12:46:51;12.94;79.50
76857;DHT22;69705;44.686;37.628;2023-12-20T12:49:20;12.95;79.76
76857;DHT22;69705;44.686;37.628;2023-12-20T12:51:48;13.01;80.50
76857;DHT22;69705;44.686;37.628;2023-12-20T12:54:14;13.00;80.39
76857;DHT22;69705;44.686;37.628;2023-12-20T12:56:43;12.93;81.04
76857;DHT22;69705;44.686;37.628;2023-12-20T12:59:11;12.89;81.11
76857;DHT22;69705;44.686;37.628;2023-12-20T13:01:37;12.85;80.04
76857;DHT22;69705;44.686;37.628;2023-12-20T13:04:05;12.79;80.48
76857;DHT22;69705;44.686;37.628;2023-12-20T13:06:37;12.74;80.59
76857;DHT22;69705;44.686;37.628;2023-12-20T13:09:04;12.72;80.11
76857;DHT22;69705;44.686;37.628;2023-12-20T13:11:31;12.69;79.54
76857;DHT22;69705;44.686;37.628;2023-12-20T13:13:58;12.64;79.62
76857;DHT22;69705;44.686;37.628;2023-12-20T13:16:25;12.64;79.88
76857;DHT22;69705;44.686;37.628;2023-12-20T13:18:52;12.61;80.13
76857;DHT22;69705;44.686;37.628;2023-12-20T13:21:19;12.55;80.04
76857;DHT22;69705;44.686;37.628;2023-12-20T13:23:45;12.50;79.88
76857;DHT22;69705;44.686;37.628;2023-12-20T13:26:12;12.47;79.73
76857;DHT22;69705;44.686;37.628;2023-12-20T13:28:39;12.45;80.84
76857;DHT22;69705;44.686;37.628;2023-12-20T13:31:05;12.44;80.96
76857;DHT22;69705;44.686;37.628;2023-12-20T13:33:32;12.41;81.59
76857;DHT22;69705;44.686;37.628;2023-12-20T13:35:59;12.37;82.08
76857;DHT22;69705;44.686;37.628;2023-12-20T13:38:26;12.36;80.11
76857;DHT22;69705;44.686;37.628;2023-12-20T13:40:55;12.31;79.28
76857;DHT22;69705;44.686;37.628;2023-12-20T13:43:25;12.27;79.60
76857;DHT22;69705;44.686;37.628;2023-12-20T13:45:52;12.23;80.33
76857;DHT22;69705;44.686;37.628;2023-12-20T13:48:19;12.21;80.30
76857;DHT22;69705;44.686;37.628;2023-12-20T13:50:46;12.20;80.25
76857;DHT22;69705;44.686;37.628;2023-12-20T13:53:13;12.15;80.85
76857;DHT22;69705;44.686;37.628;2023-12-20T13:55:40;12.10;80.27
76857;DHT22;69705;44.686;37.628;2023-12-20T13:58:07;12.07;80.24
76857;DHT22;69705;44.686;37.628;2023-12-20T14:00:36;12.04;79.73
76857;DHT22;69705;44.686;37.628;2023-12-20T14:03:04;12.04;80.37
76857;DHT22;69705;44.686;37.628;2023-12-20T14:05:31;12.04;79.89
76857;DHT22;69705;44.686;37.628;2023-12-20T14:07:58;12.00;80.10
76857;DHT22;69705;44.686;37.628;2023-12-20T14:10:25;11.98;80.33
76857;DHT22;69705;44.686;37.628;2023-12-20T14:12:54;11.97;80.49
76857;DHT22;69705;44.686;37.628;2023-12-20T14:15:21;11.99;80.56
76857;DHT22;69705;44.686;37.628;2023-12-20T14:17:51;11.94;80.56
76857;DHT22;69705;44.686;37.628;2023-12-20T14:20:19;11.92;80.85
76857;DHT22;69705;44.686;37.628;2023-12-20T14:22:46;11.92;80.95
76857;DHT22;69705;44.686;37.628;2023-12-20T14:25:13;11.91;80.55
76857;DHT22;69705;44.686;37.628;2023-12-20T14:27:41;11.89;80.30
76857;DHT22;69705;44.686;37.628;2023-12-20T14:30:10;11.89;80.53
76857;DHT22;69705;44.686;37.628;2023-12-20T14:32:37;11.88;80.86
76857;DHT22;69705;44.686;37.628;2023-12-20T14:35:07;11.89;80.74
76857;DHT22;69705;44.686;37.628;2023-12-20T14:37:35;11.88;81.50
76857;DHT22;69705;44.686;37.628;2023-12-20T14:40:09;11.87;81.81
76857;DHT22;69705;44.686;37.628;2023-12-20T14:42:43;11.86;82.46
76857;DHT22;69705;44.686;37.628;2023-12-20T14:45:10;11.87;82.29
76857;DHT22;69705;44.686;37.628;2023-12-20T14:47:37;11.86;82.39
76857;DHT22;69705;44.686;37.628;2023-12-20T14:50:04;11.87;82.30
76857;DHT22;69705;44.686;37.628;2023-12-20T14:52:32;11.87;83.00
76857;DHT22;69705;44.686;37.628;2023-12-20T14:55:01;11.86;83.13
76857;DHT22;69705;44.686;37.628;2023-12-20T14:57:30;11.86;82.54
76857;DHT22;69705;44.686;37.628;2023-12-20T14:59:57;11.85;82.36
76857;DHT22;69705;44.686;37.628;2023-12-20T15:02:24;11.86;82.30
76857;DHT22;69705;44.686;37.628;2023-12-20T15:04:50;11.85;82.39
76857;DHT22;69705;44.686;37.628;2023-12-20T15:07:19;11.85;82.29
76857;DHT22;69705;44.686;37.628;2023-12-20T15:09:46;11.86;82.40
76857;DHT22;69705;44.686;37.628;2023-12-20T15:12:14;11.86;82.56
76857;DHT22;69705;44.686;37.628;2023-12-20T15:14:40;11.88;82.99
76857;DHT22;69705;44.686;37.628;2023-12-20T15:17:07;11.88;83.27
76857;DHT22;69705;44.686;37.628;2023-12-20T15:19:34;11.85;83.97
76857;DHT22;69705;44.686;37.628;2023-12-20T15:22:01;11.85;84.16